McDonaldsville, Ohio
Current Conditions -  °F | °C
As of 11:51 AM on Saturday 25 Oct 2014 (Local Time) from KCAK Reporting Station
Scattered Clouds Scattered Clouds  
Wind Chill: 63°   Ceiling: Unl
Heat Index: 63°   Visibility: 9mi
Dew Point: 50°   Wind: 17mph
Humidity: 63%   Direction: 230°SW
Pressure: 29.86"   Gusts: 23mph
Location:  40.9014°N, 81.4333°W
Report Text: KCAK 251551Z 23015G20KT 9SM FEW075 SCT200 17/10 A2986 RMK AO2 SLP111 T01720100
Loading
Personal Weather Stations






























Interactive Weather Map
Tropical Storm Tracking
New forecast layout! Learn more

10-Day Weather Forecast

Advertisements
Track Severe Weather on mobile